Time;durP1;ratioP1;P1;durP2;ratioP2;P2;SDS_P1;SDS_P2;PMS_P1;PMS_P2;Temp;Humidity;BMP_temperature;BMP_pressure;BME280_temperature;BME280_humidity;BME280_pressure;Samples;Min_cycle;Max_cycle;Signal;HPM_P1;HPM_P2
2021/12/11 00:00:35;;;;;;;36.67;27.53;;;;;;;0.06;100.00;100495.56;5010388;28;20116;-58
2021/12/11 00:03:07;;;;;;;32.93;24.47;;;;;;;0.09;100.00;100500.00;5011361;28;20253;-58
2021/12/11 00:05:37;;;;;;;36.37;27.13;;;;;;;0.11;100.00;100504.41;5010883;28;20113;-58
2021/12/11 00:08:05;;;;;;;40.17;27.13;;;;;;;0.13;100.00;100508.75;5010598;28;20065;-58
2021/12/11 00:10:43;;;;;;;37.90;25.80;;;;;;;0.14;100.00;100513.06;5011301;28;20029;-56
2021/12/11 00:13:15;;;;;;;36.53;26.43;;;;;;;0.12;100.00;100520.59;5009106;28;20041;-58
2021/12/11 00:15:44;;;;;;;37.07;26.60;;;;;;;0.11;100.00;100523.91;5011353;28;20026;-57
2021/12/11 00:18:19;;;;;;;36.70;26.60;;;;;;;0.09;100.00;100528.03;5010469;28;20038;-58
2021/12/11 00:20:52;;;;;;;35.43;26.83;;;;;;;0.07;100.00;100527.91;5011574;28;20107;-58
2021/12/11 00:23:27;;;;;;;35.87;26.07;;;;;;;0.06;100.00;100538.00;5009848;28;20470;-58
2021/12/11 00:25:52;;;;;;;33.67;25.67;;;;;;;0.04;100.00;100543.00;5010858;28;20026;-58
2021/12/11 00:28:18;;;;;;;35.20;25.43;;;;;;;0.03;100.00;100550.53;5010968;28;20470;-58
2021/12/11 00:30:45;;;;;;;42.53;28.73;;;;;;;0.03;100.00;100550.53;5011052;28;20032;-57
2021/12/11 00:33:17;;;;;;;42.50;29.50;;;;;;;0.05;100.00;100564.28;5009962;28;20061;-58
2021/12/11 00:35:44;;;;;;;45.77;30.43;;;;;;;0.07;100.00;100565.28;5010516;28;20030;-58
2021/12/11 00:38:33;;;;;;;48.50;34.17;;;;;;;0.09;100.00;100573.91;5009494;28;20092;-58
2021/12/11 00:44:43;;;;;;;44.92;30.20;;;;;;;0.07;100.00;100578.03;5010648;28;20398;-58
2021/12/11 00:47:18;;;;;;;41.77;30.03;;;;;;;0.05;100.00;100582.13;5009889;28;20072;-58
2021/12/11 00:49:52;;;;;;;44.77;30.63;;;;;;;0.05;100.00;100592.31;5010766;28;20080;-57
2021/12/11 00:52:29;;;;;;;46.23;31.87;;;;;;;0.05;100.00;100600.84;5009947;28;20069;-57
2021/12/11 00:54:55;;;;;;;46.47;32.63;;;;;;;0.07;100.00;100603.50;5009618;28;20036;-58
2021/12/11 00:57:21;;;;;;;41.17;30.57;;;;;;;0.06;100.00;100606.81;5009662;28;20041;-58
2021/12/11 00:59:56;;;;;;;45.77;29.83;;;;;;;0.02;100.00;100609.94;5009601;28;20037;-58
2021/12/11 01:02:22;;;;;;;45.30;30.73;;;;;;;-0.02;100.00;100617.34;5010468;28;20030;-59
2021/12/11 01:04:47;;;;;;;40.47;30.23;;;;;;;-0.06;100.00;100612.81;5009222;28;20041;-57
2021/12/11 01:07:22;;;;;;;46.93;31.07;;;;;;;-0.09;100.00;100612.59;5010361;28;20038;-58
2021/12/11 01:09:52;;;;;;;45.70;31.80;;;;;;;-0.12;100.00;100620.00;5009778;28;20079;-58
2021/12/11 01:12:28;;;;;;;43.47;31.23;;;;;;;-0.15;100.00;100630.00;5010401;28;20038;-57
2021/12/11 01:15:06;;;;;;;50.30;32.40;;;;;;;-0.18;100.00;100632.31;5009388;28;20025;-57
2021/12/11 01:18:00;;;;;;;48.97;32.20;;;;;;;-0.22;100.00;100638.84;5010188;28;20044;-58
2021/12/11 01:20:36;;;;;;;48.07;31.80;;;;;;;-0.23;100.00;100638.75;5009628;28;20334;-57
2021/12/11 01:23:26;;;;;;;43.57;30.17;;;;;;;-0.27;100.00;100653.78;5010359;28;20025;-58
2021/12/11 01:25:52;;;;;;;45.95;29.13;;;;;;;-0.31;100.00;100658.56;4990459;28;20030;-58
2021/12/11 01:28:19;;;;;;;40.33;28.93;;;;;;;-0.35;100.00;100662.53;4991152;28;20376;-58
2021/12/11 01:30:44;;;;;;;41.90;29.33;;;;;;;-0.37;100.00;100671.72;5010007;28;20112;-57
2021/12/11 01:33:12;;;;;;;44.60;30.67;;;;;;;-0.40;100.00;100669.84;5009470;28;20500;-58
2021/12/11 01:35:38;;;;;;;42.37;30.73;;;;;;;-0.41;100.00;100675.69;5009875;28;20038;-58
2021/12/11 01:38:26;;;;;;;37.47;28.33;;;;;;;-0.41;100.00;100679.91;5008892;28;20041;-58
2021/12/11 01:40:55;;;;;;;51.77;32.07;;;;;;;-0.44;100.00;100692.41;5008507;28;20079;-58
2021/12/11 01:43:24;;;;;;;47.27;29.97;;;;;;;-0.44;100.00;100702.59;5009836;28;20025;-58
2021/12/11 01:45:53;;;;;;;42.93;29.70;;;;;;;-0.46;100.00;100714.31;5009624;28;20171;-57
2021/12/11 01:48:22;;;;;;;47.10;30.67;;;;;;;-0.48;100.00;100716.75;5009723;28;20084;-57
2021/12/11 01:50:54;;;;;;;42.00;30.07;;;;;;;-0.49;100.00;100715.88;5009039;28;20037;-58
2021/12/11 01:53:27;;;;;;;44.40;30.10;;;;;;;-0.52;100.00;100718.19;5008566;28;20037;-57
2021/12/11 01:56:01;;;;;;;43.83;30.07;;;;;;;-0.53;100.00;100730.81;5009148;28;20030;-56
2021/12/11 01:58:36;;;;;;;45.87;30.87;;;;;;;-0.53;100.00;100735.91;5008642;28;20092;-57
2021/12/11 02:01:13;;;;;;;45.57;29.37;;;;;;;-0.55;100.00;100748.53;4990304;28;20479;-58
2021/12/11 02:03:39;;;;;;;44.67;30.90;;;;;;;-0.56;100.00;100761.13;4991213;28;20360;-56
2021/12/11 02:06:05;;;;;;;42.90;29.50;;;;;;;-0.57;100.00;100761.88;5009351;28;20038;-58
2021/12/11 02:08:34;;;;;;;39.13;28.50;;;;;;;-0.58;100.00;100768.66;5008874;28;20466;-57
2021/12/11 02:11:13;;;;;;;43.87;30.00;;;;;;;-0.58;100.00;100771.22;5008775;28;20445;-58
2021/12/11 02:13:53;;;;;;;41.87;29.57;;;;;;;-0.59;100.00;100771.09;5007942;28;20033;-58
2021/12/11 02:16:24;;;;;;;48.43;32.60;;;;;;;-0.62;100.00;100769.19;5008632;28;20084;-57
2021/12/11 02:18:54;;;;;;;48.45;31.15;;;;;;;-0.64;100.00;100770.72;5009566;28;20046;-57
2021/12/11 02:21:30;;;;;;;47.37;30.90;;;;;;;-0.67;100.00;100779.03;5011286;28;20065;-58
2021/12/11 02:24:02;;;;;;;41.43;28.87;;;;;;;-0.69;100.00;100782.22;5013413;28;20620;-58
2021/12/11 02:26:30;;;;;;;45.87;29.30;;;;;;;-0.71;100.00;100789.75;5012616;28;20080;-58
2021/12/11 02:29:21;;;;;;;47.43;31.57;;;;;;;-0.71;100.00;100791.38;5013274;28;20099;-58
2021/12/11 02:31:52;;;;;;;46.40;30.60;;;;;;;-0.71;100.00;100796.47;5012153;28;20387;-58
2021/12/11 02:34:27;;;;;;;45.67;29.60;;;;;;;-0.74;100.00;100800.56;5013033;28;20583;-58
2021/12/11 02:36:59;;;;;;;42.40;29.20;;;;;;;-0.75;100.00;100810.63;5012512;28;20029;-58
2021/12/11 02:39:32;;;;;;;39.43;27.77;;;;;;;-0.73;100.00;100806.56;5012247;28;20029;-57
2021/12/11 02:42:15;;;;;;;46.30;30.67;;;;;;;-0.73;100.00;100820.16;5012912;28;20505;-57
2021/12/11 02:45:01;;;;;;;41.70;28.63;;;;;;;-0.73;100.00;100814.19;5010976;28;20486;-57
2021/12/11 02:47:33;;;;;;;42.87;27.53;;;;;;;-0.73;100.00;100820.16;5013311;28;20108;-58
2021/12/11 02:50:13;;;;;;;42.97;29.03;;;;;;;-0.72;100.00;100826.16;5012061;28;20038;-57
2021/12/11 02:52:47;;;;;;;45.27;29.97;;;;;;;-0.73;100.00;100822.72;5011878;28;20108;-58
2021/12/11 02:55:45;;;;;;;41.43;28.87;;;;;;;-0.74;100.00;100823.47;5011086;28;20117;-57
2021/12/11 02:58:20;;;;;;;43.80;28.07;;;;;;;-0.73;100.00;100835.44;5012154;28;20057;-57
2021/12/11 03:00:56;;;;;;;41.50;30.27;;;;;;;-0.73;100.00;100834.53;5013222;28;20022;-58
2021/12/11 03:03:28;;;;;;;43.87;28.47;;;;;;;-0.73;100.00;100842.19;5011890;28;20050;-57
2021/12/11 03:06:03;;;;;;;43.63;29.87;;;;;;;-0.72;100.00;100851.63;5012758;28;20022;-58
2021/12/11 03:08:29;;;;;;;44.13;30.03;;;;;;;-0.73;100.00;100850.72;5012077;28;20113;-58
2021/12/11 03:11:00;;;;;;;48.10;30.33;;;;;;;-0.71;100.00;100847.38;5011683;28;20121;-59
2021/12/11 03:13:29;;;;;;;42.42;28.80;;;;;;;-0.69;100.00;100856.94;5012549;28;20036;-58
2021/12/11 03:15:54;;;;;;;41.90;29.13;;;;;;;-0.70;100.00;100859.38;5011288;28;20037;-57
2021/12/11 03:18:22;;;;;;;44.60;28.53;;;;;;;-0.71;100.00;100862.66;5012343;28;20029;-56
2021/12/11 03:20:48;;;;;;;44.17;30.30;;;;;;;-0.73;100.00;100871.09;5011828;28;20030;-58
2021/12/11 03:23:14;;;;;;;44.43;30.80;;;;;;;-0.74;100.00;100869.28;5011797;28;20025;-56
2021/12/11 03:25:40;;;;;;;47.07;30.60;;;;;;;-0.74;100.00;100869.28;5011114;28;20068;-58
2021/12/11 03:28:07;;;;;;;45.80;30.97;;;;;;;-0.75;100.00;100881.91;5012393;28;20393;-58
2021/12/11 03:30:38;;;;;;;42.67;28.33;;;;;;;-0.76;100.00;100883.56;5011402;28;20069;-57
2021/12/11 03:33:11;;;;;;;49.08;30.35;;;;;;;-0.77;100.00;100886.88;5010751;28;20050;-58
2021/12/11 03:35:37;;;;;;;42.53;28.50;;;;;;;-0.79;100.00;100883.31;5000669;28;20054;-58
2021/12/11 03:38:03;;;;;;;42.40;28.17;;;;;;;-0.81;100.00;100887.38;4992316;28;20054;-58
2021/12/11 03:40:29;;;;;;;45.00;29.73;;;;;;;-0.83;100.00;100888.94;5004493;28;20486;-58
2021/12/11 03:42:56;;;;;;;48.00;29.93;;;;;;;-0.84;100.00;100889.69;5011907;28;20072;-58
2021/12/11 03:45:28;;;;;;;42.23;28.00;;;;;;;-0.85;100.00;100885.38;5010720;28;20052;-57
2021/12/11 03:47:57;;;;;;;45.63;29.37;;;;;;;-0.88;100.00;100896.19;5010451;28;20048;-58
2021/12/11 03:50:24;;;;;;;47.40;29.90;;;;;;;-0.90;100.00;100895.19;5011277;28;20105;-57
2021/12/11 03:52:52;;;;;;;45.30;28.40;;;;;;;-0.90;100.00;100897.72;5012471;28;20052;-58
2021/12/11 03:55:27;;;;;;;44.00;28.50;;;;;;;-0.90;100.00;100899.41;5011182;28;20034;-58
2021/12/11 03:57:59;;;;;;;44.93;30.40;;;;;;;-0.93;100.00;100906.78;5012106;28;20451;-58
2021/12/11 04:00:37;;;;;;;47.10;29.03;;;;;;;-0.93;100.00;100906.78;5011380;28;20418;-57
2021/12/11 04:03:06;;;;;;;50.57;31.70;;;;;;;-0.93;100.00;100896.59;5010184;28;20452;-58
2021/12/11 04:05:35;;;;;;;47.07;30.67;;;;;;;-0.91;100.00;100902.69;5010844;28;20034;-58
2021/12/11 04:08:03;;;;;;;51.63;33.27;;;;;;;-0.88;100.00;100910.59;5011403;28;20049;-58
2021/12/11 04:10:29;;;;;;;55.50;33.20;;;;;;;-0.86;100.00;100919.22;5010549;28;20485;-57
2021/12/11 04:12:58;;;;;;;54.03;33.57;;;;;;;-0.83;100.00;100914.41;5011324;28;20018;-58
2021/12/11 04:15:24;;;;;;;56.07;33.03;;;;;;;-0.78;100.00;100923.28;5009966;28;20026;-58
2021/12/11 04:17:50;;;;;;;53.57;33.40;;;;;;;-0.76;100.00;100921.75;5011386;28;20080;-58
2021/12/11 04:20:20;;;;;;;57.17;32.83;;;;;;;-0.70;100.00;100926.41;5010832;28;20048;-57
2021/12/11 04:22:46;;;;;;;54.53;33.17;;;;;;;-0.69;100.00;100928.22;5011313;28;20478;-58
2021/12/11 04:25:14;;;;;;;58.77;33.70;;;;;;;-0.63;100.00;100935.44;5010377;28;20101;-57
2021/12/11 04:27:40;;;;;;;57.67;34.73;;;;;;;-0.59;100.00;100934.03;5011127;28;20068;-58
2021/12/11 04:30:09;;;;;;;55.97;32.63;;;;;;;-0.55;100.00;100944.56;5010529;28;20117;-58
2021/12/11 04:32:36;;;;;;;60.50;35.40;;;;;;;-0.51;100.00;100945.72;5010233;28;20072;-58
2021/12/11 04:35:04;;;;;;;63.13;36.63;;;;;;;-0.46;100.00;100946.06;5010801;28;20018;-58
2021/12/11 04:37:31;;;;;;;61.80;35.30;;;;;;;-0.41;100.00;100952.38;5010151;28;20026;-58
2021/12/11 04:40:04;;;;;;;56.17;33.93;;;;;;;-0.38;100.00;100956.06;5010766;28;20064;-56
2021/12/11 04:42:54;;;;;;;69.27;38.40;;;;;;;-0.34;100.00;100957.19;5010520;28;20054;-57
2021/12/11 04:45:33;;;;;;;75.93;38.87;;;;;;;-0.28;100.00;100951.69;5010009;28;20040;-57
2021/12/11 04:48:09;;;;;;;84.83;40.23;;;;;;;-0.23;100.00;100959.72;5009816;28;20021;-57
2021/12/11 04:50:46;;;;;;;79.00;40.40;;;;;;;-0.19;100.00;100969.34;5010681;28;20037;-58
2021/12/11 04:53:32;;;;;;;73.70;40.10;;;;;;;-0.14;100.00;100966.41;5010061;28;20025;-57
2021/12/11 05:11:43;;;;;;;118.23;55.57;;;;;;;0.18;100.00;100994.25;4968510;28;20042;-57
2021/12/11 05:14:13;;;;;;;124.20;56.07;;;;;;;0.21;100.00;100995.38;4967805;28;20053;-58
2021/12/11 05:16:39;;;;;;;120.27;58.00;;;;;;;0.28;100.00;100995.84;4966976;28;20551;-58
2021/12/11 05:19:05;;;;;;;118.87;55.97;;;;;;;0.33;100.00;100997.06;4968547;28;20412;-57
2021/12/11 05:21:33;;;;;;;123.80;55.23;;;;;;;0.36;100.00;100999.84;4968096;28;20439;-57
2021/12/11 05:23:59;;;;;;;112.97;53.53;;;;;;;0.38;100.00;101008.50;4958849;28;20092;-58
2021/12/11 05:26:24;;;;;;;123.07;53.90;;;;;;;0.40;100.00;101011.19;4968544;28;20110;-58
2021/12/11 05:28:50;;;;;;;109.30;51.13;;;;;;;0.43;100.00;101011.44;4967805;28;20031;-58
2021/12/11 05:31:15;;;;;;;105.43;50.17;;;;;;;0.43;100.00;101026.72;4968531;28;20037;-58
2021/12/11 05:33:42;;;;;;;103.73;49.50;;;;;;;0.44;100.00;101037.03;4967543;28;20051;-58
2021/12/11 05:36:12;;;;;;;99.60;47.93;;;;;;;0.45;100.00;101036.25;4964345;28;20050;-58
2021/12/11 05:38:39;;;;;;;105.07;50.00;;;;;;;0.49;100.00;101027.19;4968074;28;20111;-57
2021/12/11 05:41:08;;;;;;;106.80;49.23;;;;;;;0.55;100.00;101031.88;4967141;28;20035;-58
2021/12/11 05:43:34;;;;;;;113.13;50.57;;;;;;;0.61;100.00;101034.91;4967455;28;20546;-58
2021/12/11 05:46:00;;;;;;;110.03;52.93;;;;;;;0.64;100.00;101032.56;4968228;28;20345;-58
2021/12/11 05:48:26;;;;;;;115.77;50.33;;;;;;;0.68;100.00;101033.69;4983666;28;20145;-58
2021/12/11 05:50:56;;;;;;;112.80;52.20;;;;;;;0.71;100.00;101034.81;5008924;28;20458;-57
2021/12/11 05:53:23;;;;;;;104.30;49.80;;;;;;;0.74;100.00;101030.72;5008862;28;20113;-57
2021/12/11 05:55:52;;;;;;;124.83;52.50;;;;;;;0.79;100.00;101039.59;5009376;28;20029;-58
2021/12/11 05:58:46;;;;;;;109.87;52.10;;;;;;;0.82;100.00;101050.03;5014009;28;20434;-57
2021/12/11 06:01:15;;;;;;;111.20;50.00;;;;;;;0.82;100.00;101048.38;5012892;28;20394;-56
2021/12/11 06:03:40;;;;;;;114.20;52.60;;;;;;;0.87;100.00;101050.38;5013623;28;20029;-57
2021/12/11 06:06:06;;;;;;;114.60;53.70;;;;;;;0.90;100.00;101051.47;5011708;28;20040;-56
2021/12/11 06:08:31;;;;;;;112.93;53.57;;;;;;;0.93;100.00;101049.19;5013671;28;20041;-58
2021/12/11 06:10:58;;;;;;;141.30;56.03;;;;;;;0.97;100.00;101051.97;5012946;28;20025;-58
2021/12/11 06:13:25;;;;;;;132.53;61.17;;;;;;;0.98;100.00;101053.72;4994158;28;20030;-58
2021/12/11 06:15:52;;;;;;;128.27;59.13;;;;;;;0.97;100.00;101052.84;5007904;28;20022;-58
2021/12/11 06:18:18;;;;;;;130.43;58.07;;;;;;;0.99;100.00;101060.63;5013578;28;20033;-56
2021/12/11 06:20:44;;;;;;;140.93;58.70;;;;;;;0.97;100.00;101062.16;5012851;28;20502;-58
2021/12/11 06:23:10;;;;;;;126.93;58.07;;;;;;;0.98;100.00;101061.38;5013516;28;20025;-58
2021/12/11 06:25:35;;;;;;;136.13;61.17;;;;;;;0.98;100.00;101074.13;5011517;28;20045;-58
2021/12/11 06:28:03;;;;;;;139.20;61.20;;;;;;;1.01;100.00;101082.91;5013219;28;20109;-57
2021/12/11 06:30:29;;;;;;;127.00;59.67;;;;;;;1.03;100.00;101085.59;5011891;28;20060;-56
2021/12/11 06:32:55;;;;;;;128.33;60.00;;;;;;;1.06;100.00;101085.84;5012928;28;20054;-56
2021/12/11 06:35:29;;;;;;;135.50;62.63;;;;;;;1.10;100.00;101090.38;5002168;28;20498;-58
2021/12/11 06:37:56;;;;;;;130.50;59.80;;;;;;;1.12;100.00;101091.38;5012892;28;20478;-57
2021/12/11 06:40:22;;;;;;;121.97;60.33;;;;;;;1.19;100.00;101105.50;5012288;28;20073;-57
2021/12/11 06:42:51;;;;;;;121.93;57.63;;;;;;;1.24;100.00;101098.19;5011663;28;20045;-56
2021/12/11 06:45:16;;;;;;;120.77;57.17;;;;;;;1.27;100.00;101106.06;5011613;28;20061;-57
2021/12/11 06:47:41;;;;;;;106.50;58.47;;;;;;;1.28;100.00;101107.84;5011206;28;20275;-57
2021/12/11 06:50:08;;;;;;;107.67;54.00;;;;;;;1.30;100.00;101113.94;5011927;28;20030;-57
2021/12/11 06:52:33;;;;;;;112.60;56.67;;;;;;;1.32;100.00;101122.63;5009854;28;20177;-57
2021/12/11 06:54:59;;;;;;;123.70;58.43;;;;;;;1.37;100.00;101123.84;5011578;28;20474;-57
2021/12/11 06:57:25;;;;;;;117.67;57.97;;;;;;;1.37;100.00;101121.28;5011376;28;20041;-57
2021/12/11 06:59:50;;;;;;;127.93;58.70;;;;;;;1.40;100.00;101126.63;5009495;28;20030;-57
2021/12/11 07:02:18;;;;;;;130.43;61.00;;;;;;;1.41;100.00;101133.53;5010763;28;20073;-57
2021/12/11 07:04:44;;;;;;;127.37;58.63;;;;;;;1.42;100.00;101125.06;5012021;28;20038;-56
2021/12/11 07:07:12;;;;;;;130.60;60.43;;;;;;;1.44;100.00;101137.94;5011816;28;20037;-57
2021/12/11 07:09:38;;;;;;;148.70;63.97;;;;;;;1.48;100.00;101133.97;5012278;28;20463;-57
2021/12/11 07:12:04;;;;;;;146.13;64.33;;;;;;;1.48;100.00;101134.84;5005846;28;20173;-57
2021/12/11 07:14:31;;;;;;;143.00;65.63;;;;;;;1.52;100.00;101141.09;5010832;28;20112;-58
2021/12/11 07:16:58;;;;;;;147.83;66.60;;;;;;;1.53;100.00;101140.31;5010848;28;20061;-57
2021/12/11 07:19:24;;;;;;;149.57;66.17;;;;;;;1.55;100.00;101149.88;5011914;28;20390;-57
2021/12/11 07:21:50;;;;;;;145.20;67.47;;;;;;;1.64;100.00;101148.75;5011049;28;20026;-58
2021/12/11 07:24:29;;;;;;;146.33;66.90;;;;;;;1.70;100.00;101149.22;5010348;28;20026;-56
2021/12/11 07:26:55;;;;;;;138.27;62.93;;;;;;;1.72;100.00;101159.53;5007644;28;20026;-57
2021/12/11 07:29:21;;;;;;;118.67;60.87;;;;;;;1.81;100.00;101160.22;5011032;28;20042;-56
2021/12/11 07:31:48;;;;;;;138.30;67.20;;;;;;;1.84;100.00;101169.75;5009618;28;20053;-55
2021/12/11 07:34:15;;;;;;;120.83;60.80;;;;;;;1.84;100.00;101170.66;5007508;28;20502;-58
2021/12/11 07:36:41;;;;;;;123.93;62.37;;;;;;;1.84;100.00;101177.44;5009661;28;20038;-55
2021/12/11 07:39:11;;;;;;;125.47;62.43;;;;;;;1.87;100.00;101178.53;5010028;28;20038;-57
2021/12/11 07:41:37;;;;;;;123.63;60.00;;;;;;;1.90;100.00;101180.44;5010541;28;20394;-58
2021/12/11 07:44:03;;;;;;;118.93;58.37;;;;;;;1.90;100.00;101181.34;5009895;28;20053;-58
2021/12/11 07:46:30;;;;;;;117.33;57.50;;;;;;;1.92;100.00;101187.44;5009881;28;20450;-57
2021/12/11 07:48:57;;;;;;;104.63;53.67;;;;;;;2.02;100.00;101178.78;5007706;28;20038;-58
2021/12/11 07:51:25;;;;;;;114.77;57.50;;;;;;;2.03;100.00;101200.13;5009588;28;20030;-57
2021/12/11 07:53:54;;;;;;;101.83;51.83;;;;;;;2.03;100.00;101192.47;5009303;28;20045;-58
2021/12/11 07:56:20;;;;;;;102.80;51.27;;;;;;;2.05;100.00;101196.03;5003043;28;20049;-57
2021/12/11 07:58:48;;;;;;;99.90;50.83;;;;;;;2.09;100.00;101204.78;5000883;28;20423;-57
2021/12/11 08:01:14;;;;;;;100.73;50.90;;;;;;;2.08;100.00;101196.25;5010276;28;20025;-57
2021/12/11 08:03:41;;;;;;;89.00;47.57;;;;;;;2.11;100.00;101208.34;5010678;28;20030;-57
2021/12/11 08:06:08;;;;;;;92.57;48.07;;;;;;;2.11;100.00;101214.34;5011028;28;20153;-58
2021/12/11 08:08:34;;;;;;;80.87;43.60;;;;;;;2.18;100.00;101202.88;5009771;28;20038;-56
2021/12/11 08:11:03;;;;;;;79.53;43.10;;;;;;;2.20;100.00;101219.25;5010694;28;20053;-58
2021/12/11 08:13:29;;;;;;;76.83;41.40;;;;;;;2.21;100.00;101222.69;5011091;28;20036;-57
2021/12/11 08:15:56;;;;;;;68.07;38.57;;;;;;;2.22;100.00;101237.25;5011204;28;20549;-57
2021/12/11 08:18:24;;;;;;;75.07;37.47;;;;;;;2.24;100.00;101228.03;5010459;28;20402;-57
2021/12/11 08:20:49;;;;;;;67.13;35.03;;;;;;;2.26;100.00;101247.84;5011503;28;20026;-57
2021/12/11 08:23:16;;;;;;;59.57;33.80;;;;;;;2.27;100.00;101241.03;5011224;28;20360;-58
2021/12/11 08:25:44;;;;;;;56.40;31.77;;;;;;;2.28;100.00;101237.72;5011581;28;20018;-57
2021/12/11 08:28:13;;;;;;;53.87;29.90;;;;;;;2.31;100.00;101248.16;5011010;28;20036;-57
2021/12/11 08:30:41;;;;;;;55.00;29.87;;;;;;;2.33;100.00;101246.59;5011011;28;20041;-58
2021/12/11 08:33:07;;;;;;;48.97;27.70;;;;;;;2.35;100.00;101262.97;5010789;28;20458;-58
2021/12/11 08:35:33;;;;;;;48.13;24.37;;;;;;;2.38;100.00;101255.50;5010340;28;20026;-58
2021/12/11 08:37:59;;;;;;;39.17;23.50;;;;;;;2.46;100.00;101265.41;5010294;28;20034;-56
2021/12/11 08:40:32;;;;;;;41.63;23.53;;;;;;;2.54;100.00;101266.81;5011025;28;20068;-57
2021/12/11 08:42:59;;;;;;;42.87;21.63;;;;;;;2.61;100.00;101256.25;5010647;28;20030;-56
2021/12/11 08:45:43;;;;;;;38.53;19.67;;;;;;;2.73;100.00;101273.25;5010306;28;20462;-58
2021/12/11 08:48:10;;;;;;;39.63;18.57;;;;;;;2.88;100.00;101284.59;5010329;28;20025;-58
2021/12/11 08:50:37;;;;;;;30.63;16.83;;;;;;;3.02;100.00;101279.56;5010525;28;20029;-58
2021/12/11 08:53:03;;;;;;;36.17;15.53;;;;;;;3.08;100.00;101295.34;5010583;28;20030;-57
2021/12/11 08:55:33;;;;;;;30.17;14.40;;;;;;;3.09;100.00;101291.13;5010667;28;20044;-57
2021/12/11 08:57:59;;;;;;;28.13;13.03;;;;;;;3.07;100.00;101293.56;5010231;28;20051;-57
2021/12/11 09:00:38;;;;;;;30.17;12.27;;;;;;;3.06;100.00;101302.03;5010370;28;20482;-57
2021/12/11 09:03:13;;;;;;;21.23;11.13;;;;;;;3.06;100.00;101308.84;5010532;28;20034;-56
2021/12/11 09:05:48;;;;;;;24.27;10.97;;;;;;;3.06;100.00;101316.50;5010617;28;20076;-57
2021/12/11 09:08:28;;;;;;;29.00;11.33;;;;;;;3.06;100.00;101325.06;5010367;28;20034;-57
2021/12/11 09:10:58;;;;;;;26.00;10.07;;;;;;;3.10;100.00;101334.75;5010497;28;20058;-57
2021/12/11 09:13:30;;;;;;;18.92;8.60;;;;;;;3.15;100.00;101341.88;5010406;28;20034;-57
2021/12/11 09:16:03;;;;;;;22.80;9.10;;;;;;;3.16;100.00;101349.66;5010416;28;20025;-58
2021/12/11 09:18:35;;;;;;;24.70;11.13;;;;;;;3.19;100.00;101356.66;5010358;28;20030;-57
2021/12/11 09:21:06;;;;;;;18.77;9.80;;;;;;;3.22;100.00;101369.72;5010108;28;20036;-56
2021/12/11 09:23:47;;;;;;;21.25;10.43;;;;;;;3.27;100.00;101370.03;5010416;28;20429;-56
2021/12/11 09:26:20;;;;;;;24.17;9.77;;;;;;;3.31;100.00;101370.34;5010348;28;20077;-58
2021/12/11 09:29:18;;;;;;;20.57;9.87;;;;;;;3.40;100.00;101379.47;5010018;28;20030;-56
2021/12/11 09:32:18;;;;;;;16.60;8.47;;;;;;;3.50;100.00;101392.13;5009663;28;20033;-57
2021/12/11 09:34:52;;;;;;;16.10;8.27;;;;;;;3.57;100.00;101391.78;5010063;28;20095;-57
2021/12/11 09:37:18;;;;;;;19.40;8.93;;;;;;;3.65;100.00;101394.00;5010238;28;20498;-58
2021/12/11 09:39:51;;;;;;;14.67;7.50;;;;;;;3.73;100.00;101400.53;5009886;28;20030;-58
2021/12/11 09:42:16;;;;;;;18.13;7.70;;;;;;;3.80;100.00;101406.97;5009836;28;20037;-57
2021/12/11 09:44:49;;;;;;;16.03;8.17;;;;;;;3.84;100.00;101407.28;5009832;28;20026;-57
2021/12/11 09:47:19;;;;;;;16.43;7.30;;;;;;;3.90;100.00;101417.09;5010046;28;20025;-57
2021/12/11 09:49:53;;;;;;;10.90;6.60;;;;;;;3.92;100.00;101427.44;5010350;28;20162;-57
2021/12/11 09:52:23;;;;;;;13.63;6.93;;;;;;;3.98;100.00;101427.84;5010178;28;20459;-58
2021/12/11 09:54:54;;;;;;;14.48;6.63;;;;;;;4.02;100.00;101427.28;5009836;28;20033;-58
2021/12/11 09:57:23;;;;;;;11.23;7.07;;;;;;;4.07;100.00;101430.16;5010097;28;20075;-57
2021/12/11 09:59:51;;;;;;;10.93;7.30;;;;;;;4.10;100.00;101432.94;5009966;28;20120;-57
2021/12/11 10:02:21;;;;;;;15.80;7.03;;;;;;;4.11;100.00;101438.94;5009993;28;20026;-58
2021/12/11 10:05:19;;;;;;;13.53;6.70;;;;;;;4.15;100.00;101434.16;5009700;28;20022;-58
2021/12/11 10:08:01;;;;;;;10.87;6.37;;;;;;;4.18;100.00;101441.16;5009958;28;20401;-58
2021/12/11 10:10:27;;;;;;;13.77;6.33;;;;;;;4.19;100.00;101443.81;5009601;28;20041;-58
2021/12/11 10:12:56;;;;;;;13.63;7.50;;;;;;;4.22;100.00;101450.84;5009448;28;20470;-58
2021/12/11 10:15:38;;;;;;;13.87;9.20;;;;;;;4.24;100.00;101453.50;5010216;28;20355;-57
2021/12/11 10:18:12;;;;;;;12.40;9.63;;;;;;;4.24;100.00;101462.09;5009674;28;20037;-56
2021/12/11 10:20:57;;;;;;;15.70;10.87;;;;;;;4.24;100.00;101462.09;5009740;28;20060;-58
2021/12/11 10:23:27;;;;;;;19.00;11.77;;;;;;;4.22;100.00;101467.91;5009615;28;20266;-60
2021/12/11 10:25:54;;;;;;;12.65;9.65;;;;;;;4.21;100.00;101479.84;5009813;28;20449;-58
2021/12/11 10:28:23;;;;;;;18.17;10.13;;;;;;;4.21;100.00;101482.41;5009369;28;20029;-58
2021/12/11 10:30:53;;;;;;;10.80;7.97;;;;;;;4.21;100.00;101482.41;5009369;28;20037;-58
2021/12/11 10:33:21;;;;;;;13.93;8.23;;;;;;;4.22;100.00;101481.63;5009039;28;20050;-58
2021/12/11 10:35:49;;;;;;;13.97;8.20;;;;;;;4.23;100.00;101483.41;5009455;28;20568;-58
2021/12/11 10:38:16;;;;;;;16.83;7.53;;;;;;;4.24;100.00;101482.63;5009494;28;20080;-58
2021/12/11 10:40:57;;;;;;;11.98;7.13;;;;;;;4.27;100.00;101487.97;5008252;28;20033;-57
2021/12/11 10:43:36;;;;;;;13.30;6.60;;;;;;;4.31;100.00;101489.97;5013196;28;20092;-57
2021/12/11 10:46:05;;;;;;;12.60;5.93;;;;;;;4.35;100.00;101495.28;5013343;28;20026;-58
2021/12/11 10:48:34;;;;;;;12.85;6.25;;;;;;;4.36;100.00;101497.06;5013010;28;20034;-58
2021/12/11 10:51:03;;;;;;;11.50;5.70;;;;;;;4.38;100.00;101500.63;5012999;28;20026;-58
2021/12/11 10:53:30;;;;;;;11.67;5.97;;;;;;;4.40;100.00;101509.34;5011591;28;20469;-58
2021/12/11 10:55:58;;;;;;;9.93;5.67;;;;;;;4.46;100.00;101514.91;5012785;28;20030;-57
2021/12/11 10:58:27;;;;;;;15.90;6.00;;;;;;;4.57;100.00;101515.59;5012776;28;20040;-56
2021/12/11 11:01:21;;;;;;;10.07;6.33;;;;;;;4.72;100.00;101515.75;5012707;28;20041;-58
2021/12/11 11:03:51;;;;;;;9.68;6.18;;;;;;;4.87;100.00;101522.69;5009827;28;20056;-58
2021/12/11 11:06:17;;;;;;;10.82;6.82;;;;;;;4.98;100.00;101524.31;5009970;28;20550;-58
2021/12/11 11:08:44;;;;;;;14.35;6.25;;;;;;;5.11;100.00;101532.81;5010152;28;20149;-58
2021/12/11 11:11:15;;;;;;;11.18;5.50;;;;;;;5.18;100.00;101529.84;5009798;28;20025;-58
2021/12/11 11:13:42;;;;;;;10.65;5.82;;;;;;;5.19;100.00;101530.72;5009534;28;20033;-58
2021/12/11 11:16:08;;;;;;;12.57;5.35;;;;;;;5.17;100.00;101538.34;5009452;28;20033;-58
2021/12/11 11:18:34;;;;;;;11.25;5.57;;;;;;;5.14;100.00;101549.34;5009887;28;20026;-58
2021/12/11 11:21:13;;;;;;;10.50;5.50;;;;;;;5.15;100.00;101555.34;5009729;28;20103;-58
2021/12/11 11:23:41;;;;;;;11.13;5.80;;;;;;;5.16;100.00;101557.13;5009510;28;20128;-59
2021/12/11 11:26:12;;;;;;;9.70;6.28;;;;;;;5.16;100.00;101562.28;4993237;28;20414;-58
2021/12/11 11:28:38;;;;;;;10.90;5.63;;;;;;;5.16;100.00;101562.28;5009585;28;20038;-58
2021/12/11 11:31:13;;;;;;;9.93;5.80;;;;;;;5.15;100.00;101556.25;5009693;28;20026;-57
2021/12/11 11:33:40;;;;;;;9.98;5.28;;;;;;;5.15;100.00;101573.31;5009054;28;20065;-56
2021/12/11 11:36:10;;;;;;;13.40;6.20;;;;;;;5.16;100.00;101567.41;4993197;28;20096;-56
2021/12/11 11:38:41;;;;;;;13.35;5.93;;;;;;;5.16;100.00;101572.56;5009596;28;20057;-57
2021/12/11 11:41:13;;;;;;;13.32;5.90;;;;;;;5.17;100.00;101569.19;5011235;28;20494;-57